createdAt,value
2018-08-23T00:01:37.011Z,24.70
2018-08-23T00:04:11.451Z,24.60
2018-08-23T00:06:47.734Z,24.60
2018-08-23T00:09:16.956Z,24.50
2018-08-23T00:11:46.926Z,24.40
2018-08-23T00:14:17.164Z,24.40
2018-08-23T00:16:47.880Z,24.30
2018-08-23T00:19:17.488Z,24.30
2018-08-23T00:21:48.984Z,24.30
2018-08-23T00:24:19.336Z,24.30
2018-08-23T00:26:50.660Z,24.20
2018-08-23T00:29:30.151Z,24.20
2018-08-23T00:32:14.066Z,24.20
2018-08-23T00:34:43.292Z,24.20
2018-08-23T00:37:13.617Z,24.20
2018-08-23T00:39:42.904Z,24.20
2018-08-23T00:42:12.943Z,24.20
2018-08-23T00:45:01.988Z,24.10
2018-08-23T00:47:32.436Z,24.10
2018-08-23T00:50:01.772Z,24.10
2018-08-23T00:52:44.586Z,24.00
2018-08-23T00:55:16.672Z,24.00
2018-08-23T00:57:46.975Z,24.00
2018-08-23T01:00:22.104Z,23.90
2018-08-23T01:02:52.779Z,23.90
2018-08-23T01:05:27.643Z,23.80
2018-08-23T01:07:57.065Z,23.70
2018-08-23T01:10:26.296Z,23.60
2018-08-23T01:12:59.902Z,23.40
2018-08-23T01:15:29.781Z,23.40
2018-08-23T01:18:12.636Z,23.30
2018-08-23T01:20:42.728Z,23.30
2018-08-23T01:23:11.962Z,23.20
2018-08-23T01:25:42.660Z,23.20
2018-08-23T01:28:11.998Z,23.20
2018-08-23T01:30:41.736Z,23.10
2018-08-23T01:33:13.073Z,23.20
2018-08-23T01:35:43.516Z,23.10
2018-08-23T01:38:13.704Z,23.20
2018-08-23T01:40:43.439Z,23.20
2018-08-23T01:43:12.779Z,23.10
2018-08-23T01:45:42.040Z,23.00
2018-08-23T01:48:11.808Z,22.90
2018-08-23T01:50:41.052Z,22.80
2018-08-23T01:53:10.300Z,22.80
2018-08-23T01:55:39.760Z,22.80
2018-08-23T01:58:09.043Z,22.80
2018-08-23T02:00:38.308Z,22.80
2018-08-23T02:03:07.991Z,22.80
2018-08-23T02:05:38.795Z,22.80
2018-08-23T02:08:08.139Z,22.80
2018-08-23T02:10:37.447Z,22.70
2018-08-23T02:13:14.415Z,22.60
2018-08-23T02:15:49.031Z,22.50
2018-08-23T02:18:18.568Z,22.50
2018-08-23T02:20:50.429Z,22.50
2018-08-23T02:23:19.763Z,22.40
2018-08-23T02:25:49.028Z,22.40
2018-08-23T02:28:18.292Z,22.40
2018-08-23T02:30:56.772Z,22.30
2018-08-23T02:33:26.812Z,22.30
2018-08-23T02:36:22.986Z,22.50
2018-08-23T02:39:04.701Z,22.50
2018-08-23T02:41:34.000Z,22.50
2018-08-23T02:44:03.277Z,22.30
2018-08-23T02:46:33.020Z,22.30
2018-08-23T02:49:02.305Z,22.20
2018-08-23T02:51:40.647Z,22.10
2018-08-23T02:54:12.054Z,22.00
2018-08-23T02:56:45.582Z,21.90
2018-08-23T02:59:14.860Z,21.90
2018-08-23T03:01:49.076Z,21.80
2018-08-23T03:04:21.644Z,21.80
2018-08-23T03:06:54.252Z,21.80
2018-08-23T03:09:26.901Z,21.90
2018-08-23T03:11:57.225Z,21.80
2018-08-23T03:14:27.576Z,21.80
2018-08-23T03:17:40.563Z,21.80
2018-08-23T03:20:14.425Z,21.80
2018-08-23T03:22:45.012Z,21.80
2018-08-23T03:25:15.991Z,21.70
2018-08-23T03:27:45.317Z,21.60
2018-08-23T03:30:17.513Z,21.60
2018-08-23T03:32:46.965Z,21.50
2018-08-23T03:35:16.211Z,21.50
2018-08-23T03:37:45.492Z,21.50
2018-08-23T03:40:16.301Z,21.60
2018-08-23T03:42:46.510Z,21.60
2018-08-23T03:45:21.297Z,21.50
2018-08-23T03:47:50.807Z,21.40
2018-08-23T03:50:20.192Z,21.30
2018-08-23T03:52:53.558Z,21.20
2018-08-23T03:55:25.361Z,21.10
2018-08-23T03:57:59.748Z,21.10
2018-08-23T04:00:34.997Z,21.20
2018-08-23T04:03:09.141Z,21.20
2018-08-23T04:05:38.408Z,21.10
2018-08-23T04:08:07.664Z,21.10
2018-08-23T04:10:36.986Z,21.20
2018-08-23T04:13:06.242Z,21.20
2018-08-23T04:15:35.506Z,21.10
2018-08-23T04:18:14.158Z,21.10
2018-08-23T04:20:51.558Z,21.10
2018-08-23T04:23:20.876Z,21.00
2018-08-23T04:25:50.111Z,21.10
2018-08-23T04:28:19.371Z,21.00
2018-08-23T04:30:48.644Z,21.00
2018-08-23T04:33:17.888Z,21.10
2018-08-23T04:35:47.140Z,21.10
2018-08-23T04:38:16.516Z,21.10
2018-08-23T04:40:58.060Z,21.00
2018-08-23T04:43:27.336Z,21.10
2018-08-23T04:45:56.627Z,21.10
2018-08-23T04:48:25.961Z,21.10
2018-08-23T04:50:55.464Z,21.10
2018-08-23T04:53:24.681Z,21.10
2018-08-23T04:55:54.008Z,21.10
2018-08-23T04:58:23.847Z,21.10
2018-08-23T05:00:53.147Z,21.10
2018-08-23T05:03:22.513Z,21.20
2018-08-23T05:05:51.824Z,21.20
2018-08-23T05:08:21.064Z,21.30
2018-08-23T05:10:50.420Z,21.30
2018-08-23T05:13:19.732Z,21.40
2018-08-23T05:15:49.048Z,21.30
2018-08-23T05:18:18.452Z,21.30
2018-08-23T05:20:48.160Z,21.30
2018-08-23T05:23:18.358Z,21.40
2018-08-23T05:25:47.612Z,21.40
2018-08-23T05:28:18.453Z,21.50
2018-08-23T05:30:48.447Z,21.50
2018-08-23T05:33:18.940Z,21.50
2018-08-23T05:35:48.300Z,21.50
2018-08-23T05:38:18.321Z,21.60
2018-08-23T05:40:55.600Z,21.60
2018-08-23T05:43:24.870Z,21.60
2018-08-23T05:45:55.443Z,21.60
2018-08-23T05:48:32.062Z,21.60
2018-08-23T05:51:05.512Z,21.60
2018-08-23T05:53:39.302Z,21.60
2018-08-23T05:56:09.132Z,21.60
2018-08-23T05:58:38.696Z,21.70
2018-08-23T06:01:08.340Z,21.70
2018-08-23T06:03:38.021Z,21.80
2018-08-23T06:06:07.657Z,21.80
2018-08-23T06:08:37.018Z,21.80
2018-08-23T06:11:08.603Z,21.80
2018-08-23T06:13:38.085Z,21.90
2018-08-23T06:16:07.453Z,21.90
2018-08-23T06:18:36.702Z,21.90
2018-08-23T06:21:06.397Z,21.90
2018-08-23T06:24:00.421Z,21.90
2018-08-23T06:26:43.667Z,21.90
2018-08-23T06:29:27.017Z,22.00
2018-08-23T06:32:09.433Z,22.10
2018-08-23T06:34:50.224Z,22.20
2018-08-23T06:37:20.861Z,22.20
2018-08-23T06:39:50.124Z,22.20
2018-08-23T06:42:19.659Z,22.30
2018-08-23T06:44:52.196Z,22.30
2018-08-23T06:47:22.811Z,22.40
2018-08-23T06:49:53.244Z,22.50
2018-08-23T06:52:29.781Z,22.50
2018-08-23T06:55:00.499Z,22.50
2018-08-23T06:57:40.419Z,22.50
2018-08-23T07:00:09.792Z,22.60
2018-08-23T07:02:45.502Z,22.70
2018-08-23T07:05:14.769Z,22.70
2018-08-23T07:07:44.153Z,22.90
2018-08-23T07:10:14.013Z,22.90
2018-08-23T07:12:43.671Z,22.90
2018-08-23T07:15:13.092Z,23.00
2018-08-23T07:17:42.399Z,23.10
2018-08-23T07:20:12.480Z,23.10
2018-08-23T07:22:41.812Z,23.20
2018-08-23T07:25:14.364Z,23.20
2018-08-23T07:27:43.972Z,23.30
2018-08-23T07:30:19.380Z,23.40
2018-08-23T07:32:49.808Z,23.50
2018-08-23T07:35:20.312Z,23.50
2018-08-23T07:37:51.194Z,23.60
2018-08-23T07:40:22.582Z,23.60
2018-08-23T07:42:53.376Z,23.70
2018-08-23T07:45:22.661Z,23.70
2018-08-23T07:47:54.420Z,23.70
2018-08-23T07:50:23.749Z,23.80
2018-08-23T07:52:54.124Z,23.90
2018-08-23T07:55:23.376Z,24.00
2018-08-23T07:57:52.627Z,24.10
2018-08-23T08:00:43.625Z,24.20
2018-08-23T08:03:14.187Z,24.30
2018-08-23T08:05:45.337Z,24.50
2018-08-23T08:08:14.750Z,24.60
2018-08-23T08:10:45.149Z,24.60
2018-08-23T08:13:14.441Z,24.60
2018-08-23T08:15:43.685Z,24.60
2018-08-23T08:18:28.333Z,24.70
2018-08-23T08:21:03.466Z,24.80
2018-08-23T08:23:33.832Z,24.80
2018-08-23T08:26:03.068Z,25.00
2018-08-23T08:28:32.325Z,25.10
2018-08-23T08:31:02.424Z,25.20
2018-08-23T08:33:34.658Z,25.40
2018-08-23T08:36:04.831Z,25.60
2018-08-23T08:38:34.751Z,25.80
2018-08-23T08:41:03.992Z,26.00
2018-08-23T08:43:34.044Z,26.20
2018-08-23T08:46:03.709Z,26.50
2018-08-23T08:48:34.054Z,26.70
2018-08-23T08:51:34.769Z,26.90
2018-08-23T08:54:04.520Z,27.10
2018-08-23T08:56:39.259Z,27.20
2018-08-23T08:59:08.507Z,27.30
2018-08-23T09:01:37.776Z,27.50
2018-08-23T09:04:07.528Z,27.80
2018-08-23T09:06:44.803Z,28.00
2018-08-23T09:09:24.925Z,28.20
2018-08-23T09:11:54.308Z,28.30
2018-08-23T09:14:23.780Z,28.40
2018-08-23T09:16:53.642Z,28.50
2018-08-23T09:19:33.788Z,28.60
2018-08-23T09:22:10.776Z,28.70
2018-08-23T09:24:40.332Z,28.90
2018-08-23T09:27:16.096Z,29.00
2018-08-23T09:29:45.472Z,29.10
2018-08-23T09:32:21.040Z,29.20
2018-08-23T09:34:54.789Z,29.30
2018-08-23T09:37:24.326Z,29.30
2018-08-23T09:39:53.684Z,29.40
2018-08-23T09:42:22.926Z,29.50
2018-08-23T09:45:03.840Z,29.60
2018-08-23T09:47:34.176Z,29.70
2018-08-23T09:50:03.582Z,29.80
2018-08-23T09:52:40.204Z,29.90
2018-08-23T09:55:11.289Z,29.90
2018-08-23T09:57:40.916Z,29.80
2018-08-23T10:00:18.987Z,29.60
2018-08-23T10:02:53.548Z,29.60
2018-08-23T10:05:29.122Z,29.70
2018-08-23T10:08:04.205Z,29.70
2018-08-23T10:10:38.829Z,29.80
2018-08-23T10:13:13.476Z,29.80
2018-08-23T10:15:44.924Z,29.90
2018-08-23T10:18:25.850Z,29.90
2018-08-23T10:20:59.844Z,29.90
2018-08-23T10:23:29.356Z,30.00
2018-08-23T10:26:00.182Z,30.10
2018-08-23T10:29:05.097Z,30.10
2018-08-23T10:31:34.409Z,30.20
2018-08-23T10:34:03.664Z,30.20
2018-08-23T10:36:33.190Z,30.20
2018-08-23T10:39:02.540Z,30.30
2018-08-23T10:41:32.099Z,30.30
2018-08-23T10:44:01.501Z,30.30
2018-08-23T10:46:35.312Z,30.30
2018-08-23T10:49:04.642Z,30.40
2018-08-23T10:51:34.184Z,30.50
2018-08-23T10:54:03.541Z,30.60
2018-08-23T10:56:33.197Z,30.80
2018-08-23T10:59:02.739Z,31.10
2018-08-23T11:01:32.002Z,31.50
2018-08-23T11:04:07.656Z,32.10
2018-08-23T11:06:41.309Z,32.80
2018-08-23T11:09:15.796Z,33.10
2018-08-23T11:11:45.112Z,33.30
2018-08-23T11:14:19.624Z,33.60
2018-08-23T11:16:56.539Z,34.30
2018-08-23T11:19:31.028Z,34.60
2018-08-23T11:22:00.312Z,34.10
2018-08-23T11:24:30.824Z,33.40
2018-08-23T11:27:00.120Z,32.90
2018-08-23T11:29:29.449Z,32.60
2018-08-23T11:31:59.037Z,32.30
2018-08-23T11:34:28.564Z,32.10
2018-08-23T11:36:57.828Z,31.80
2018-08-23T11:39:27.109Z,31.60
2018-08-23T11:41:58.680Z,31.30
2018-08-23T11:44:27.928Z,31.00
2018-08-23T11:46:57.965Z,30.70
2018-08-23T11:49:28.484Z,30.60
2018-08-23T11:51:57.792Z,30.50
2018-08-23T11:54:27.116Z,30.10
2018-08-23T11:56:56.468Z,29.90
2018-08-23T11:59:25.885Z,29.70
2018-08-23T12:01:55.166Z,29.50
2018-08-23T12:04:24.749Z,29.40
2018-08-23T12:06:57.196Z,29.20
2018-08-23T12:09:31.980Z,29.10
2018-08-23T12:12:03.127Z,29.10
2018-08-23T12:14:32.423Z,29.00
2018-08-23T12:17:01.797Z,29.00
2018-08-23T12:19:31.472Z,29.00
2018-08-23T12:22:00.966Z,29.10
2018-08-23T12:24:30.381Z,29.20
2018-08-23T12:26:59.840Z,29.10
2018-08-23T12:29:29.835Z,28.90
2018-08-23T12:31:59.408Z,28.80
2018-08-23T12:34:35.241Z,28.60
2018-08-23T12:37:11.085Z,28.50
2018-08-23T12:39:45.668Z,28.50
2018-08-23T12:42:20.812Z,28.60
2018-08-23T12:44:53.412Z,28.70
2018-08-23T12:47:22.888Z,28.90
2018-08-23T12:49:52.312Z,29.10
2018-08-23T12:52:22.533Z,29.10
2018-08-23T12:54:52.963Z,29.30
2018-08-23T12:57:22.484Z,29.30
2018-08-23T12:59:53.034Z,29.40
2018-08-23T13:02:22.645Z,29.50
2018-08-23T13:04:53.238Z,29.90
2018-08-23T13:07:22.744Z,30.40
2018-08-23T13:09:52.690Z,31.00
2018-08-23T13:12:22.260Z,31.60
2018-08-23T13:14:51.598Z,32.20
2018-08-23T13:17:23.327Z,33.30
2018-08-23T13:19:52.928Z,33.80
2018-08-23T13:22:27.620Z,34.00
2018-08-23T13:25:03.545Z,34.50
2018-08-23T13:27:33.635Z,34.30
2018-08-23T13:30:07.404Z,33.80
2018-08-23T13:32:36.888Z,34.70
2018-08-23T13:35:06.682Z,35.60
2018-08-23T13:37:36.532Z,35.50
2018-08-23T13:40:06.213Z,35.10
2018-08-23T13:42:36.125Z,35.90
2018-08-23T13:45:06.828Z,37.30
2018-08-23T13:47:36.196Z,38.20
2018-08-23T13:50:05.493Z,38.30
2018-08-23T13:52:34.997Z,38.30
2018-08-23T13:55:04.568Z,37.50
2018-08-23T13:57:33.965Z,36.50
2018-08-23T14:00:03.308Z,36.20
2018-08-23T14:02:32.659Z,35.80
2018-08-23T14:05:01.880Z,34.90
2018-08-23T14:07:31.301Z,35.30
2018-08-23T14:10:00.796Z,37.10
2018-08-23T14:12:30.072Z,38.80
2018-08-23T14:14:59.600Z,39.80
2018-08-23T14:17:29.096Z,39.90
2018-08-23T14:19:58.368Z,40.30
2018-08-23T14:22:27.605Z,41.00
2018-08-23T14:24:56.856Z,41.30
2018-08-23T14:27:27.453Z,41.50
2018-08-23T14:29:57.012Z,41.00
2018-08-23T14:32:26.277Z,39.80
2018-08-23T14:34:55.643Z,39.00
2018-08-23T14:37:24.960Z,38.70
2018-08-23T14:39:54.489Z,38.90
2018-08-23T14:42:23.732Z,38.90
2018-08-23T14:44:53.017Z,38.30
2018-08-23T14:47:27.686Z,37.80
2018-08-23T14:49:57.325Z,37.30
2018-08-23T14:52:27.006Z,36.90
2018-08-23T14:54:56.376Z,36.60
2018-08-23T14:57:32.121Z,36.30
2018-08-23T15:00:01.707Z,36.00
2018-08-23T15:02:31.319Z,36.00
2018-08-23T15:05:00.771Z,35.90
2018-08-23T15:07:32.544Z,36.20
2018-08-23T15:10:03.111Z,36.80
2018-08-23T15:12:32.627Z,36.60
2018-08-23T15:15:02.553Z,36.90
2018-08-23T15:17:32.197Z,37.00
2018-08-23T15:20:01.820Z,37.20
2018-08-23T15:22:31.465Z,37.40
2018-08-23T15:25:01.063Z,37.40
2018-08-23T15:27:34.273Z,37.40
2018-08-23T15:30:05.508Z,37.10
2018-08-23T15:32:34.780Z,37.00
2018-08-23T15:35:08.112Z,36.60
2018-08-23T15:37:37.642Z,36.20
2018-08-23T15:40:06.950Z,35.80
2018-08-23T15:42:36.276Z,35.80
2018-08-23T15:45:05.917Z,35.80
2018-08-23T15:47:35.529Z,35.80
2018-08-23T15:50:05.715Z,35.80
2018-08-23T15:52:35.266Z,35.80
2018-08-23T15:55:04.714Z,35.50
2018-08-23T15:57:34.504Z,35.00
2018-08-23T16:00:05.961Z,34.80
2018-08-23T16:02:35.339Z,34.90
2018-08-23T16:05:05.112Z,34.80
2018-08-23T16:07:34.472Z,35.20
2018-08-23T16:10:06.924Z,35.70
2018-08-23T16:12:37.039Z,35.90
2018-08-23T16:15:13.085Z,36.00
2018-08-23T16:17:47.503Z,36.00
2018-08-23T16:20:27.085Z,36.10
2018-08-23T16:22:58.164Z,36.10
2018-08-23T16:25:27.487Z,35.00
2018-08-23T16:28:00.848Z,34.70
2018-08-23T16:30:30.564Z,34.50
2018-08-23T16:33:00.039Z,34.20
2018-08-23T16:35:33.742Z,34.10
2018-08-23T16:38:04.192Z,34.50
2018-08-23T16:40:33.812Z,35.10
2018-08-23T16:43:04.195Z,35.60
2018-08-23T16:45:35.721Z,36.00
2018-08-23T16:48:05.085Z,36.30
2018-08-23T16:50:34.621Z,36.70
2018-08-23T16:53:03.939Z,37.00
2018-08-23T16:55:34.624Z,37.20
2018-08-23T16:58:05.526Z,36.90
2018-08-23T17:00:34.937Z,36.90
2018-08-23T17:03:05.990Z,37.00
2018-08-23T17:05:35.368Z,37.20
2018-08-23T17:08:04.752Z,37.10
2018-08-23T17:10:34.309Z,36.90
2018-08-23T17:13:03.892Z,36.60
2018-08-23T17:15:38.734Z,36.40
2018-08-23T17:18:09.565Z,36.00
2018-08-23T17:20:39.165Z,35.40
2018-08-23T17:23:13.787Z,34.90
2018-08-23T17:25:44.043Z,34.50
2018-08-23T17:28:18.185Z,34.20
2018-08-23T17:30:48.311Z,33.90
2018-08-23T17:33:17.528Z,33.70
2018-08-23T17:35:47.144Z,33.50
2018-08-23T17:38:17.522Z,33.30
2018-08-23T17:40:47.620Z,33.10
2018-08-23T17:43:19.245Z,32.80
2018-08-23T17:45:50.392Z,32.60
2018-08-23T17:48:20.249Z,32.50
2018-08-23T17:50:51.079Z,32.40
2018-08-23T17:53:20.959Z,32.30
2018-08-23T17:55:50.406Z,32.20
2018-08-23T17:58:19.934Z,32.10
2018-08-23T18:00:49.566Z,32.00
2018-08-23T18:03:19.117Z,31.80
2018-08-23T18:05:48.677Z,31.60
2018-08-23T18:08:18.212Z,31.40
2018-08-23T18:10:47.661Z,31.40
2018-08-23T18:13:18.180Z,31.30
2018-08-23T18:15:53.284Z,31.20
2018-08-23T18:18:23.811Z,31.10
2018-08-23T18:20:53.387Z,31.00
2018-08-23T18:23:23.980Z,30.90
2018-08-23T18:25:53.577Z,30.80
2018-08-23T18:28:24.084Z,30.70
2018-08-23T18:30:55.544Z,30.50
2018-08-23T18:33:24.897Z,30.40
2018-08-23T18:35:54.456Z,30.30
2018-08-23T18:38:24.084Z,30.20
2018-08-23T18:40:53.658Z,30.00
2018-08-23T18:43:24.746Z,30.00
2018-08-23T18:45:54.106Z,30.00
2018-08-23T18:48:27.413Z,30.00
2018-08-23T18:50:57.239Z,29.90
2018-08-23T18:53:28.908Z,29.70
2018-08-23T18:56:00.896Z,29.60
2018-08-23T18:58:30.539Z,29.50
2018-08-23T19:01:00.656Z,29.40
2018-08-23T19:03:31.434Z,29.20
2018-08-23T19:06:02.338Z,29.20
2018-08-23T19:08:34.099Z,29.20
2018-08-23T19:11:07.100Z,29.20
2018-08-23T19:13:37.023Z,29.20
2018-08-23T19:16:11.529Z,29.10
2018-08-23T19:18:42.076Z,29.20
2018-08-23T19:21:11.368Z,29.10
2018-08-23T19:23:40.652Z,29.00
2018-08-23T19:26:12.035Z,28.90
2018-08-23T19:28:41.620Z,28.90
2018-08-23T19:31:13.674Z,28.90
2018-08-23T19:33:45.437Z,28.70
2018-08-23T19:36:14.919Z,28.70
2018-08-23T19:38:44.147Z,28.60
2018-08-23T19:41:17.121Z,28.60
2018-08-23T19:43:50.444Z,28.50
2018-08-23T19:46:25.441Z,28.40
2018-08-23T19:49:01.152Z,28.40
2018-08-23T19:51:32.768Z,28.30
2018-08-23T19:54:02.336Z,28.20
2018-08-23T19:56:31.724Z,28.20
2018-08-23T19:59:02.202Z,28.20
2018-08-23T20:01:32.757Z,28.20
2018-08-23T20:04:02.339Z,28.10
2018-08-23T20:06:32.103Z,28.10
2018-08-23T20:09:01.721Z,28.10
2018-08-23T20:11:31.148Z,28.00
2018-08-23T20:14:08.080Z,28.00
2018-08-23T20:16:38.670Z,28.00
2018-08-23T20:19:08.204Z,28.10
2018-08-23T20:21:37.752Z,28.20
2018-08-23T20:24:07.560Z,28.20
2018-08-23T20:26:37.449Z,28.20
2018-08-23T20:29:07.056Z,28.20
2018-08-23T20:31:36.579Z,28.10
2018-08-23T20:34:07.116Z,28.00
2018-08-23T20:36:36.387Z,27.80
2018-08-23T20:39:08.771Z,27.70
2018-08-23T20:41:38.060Z,27.40
2018-08-23T20:44:07.596Z,27.40
2018-08-23T20:46:37.149Z,27.20
2018-08-23T20:49:06.812Z,27.00
2018-08-23T20:51:36.788Z,26.80
2018-08-23T20:54:06.512Z,26.60
2018-08-23T20:56:35.769Z,26.40
2018-08-23T20:59:05.383Z,26.30
2018-08-23T21:01:34.755Z,26.10
2018-08-23T21:04:04.517Z,26.00
2018-08-23T21:06:33.764Z,25.90
2018-08-23T21:09:04.595Z,25.90
2018-08-23T21:11:34.242Z,25.80
2018-08-23T21:14:03.576Z,25.70
2018-08-23T21:16:33.102Z,25.70
2018-08-23T21:19:02.738Z,25.60
2018-08-23T21:21:32.057Z,25.50
2018-08-23T21:24:01.356Z,25.40
2018-08-23T21:26:31.244Z,25.40
2018-08-23T21:29:01.211Z,25.30
2018-08-23T21:31:30.880Z,25.20
2018-08-23T21:34:00.317Z,25.20
2018-08-23T21:36:29.584Z,25.20
2018-08-23T21:38:58.807Z,25.20
2018-08-23T21:41:28.388Z,25.20
2018-08-23T21:43:58.888Z,25.20
2018-08-23T21:46:28.493Z,25.20
2018-08-23T21:48:59.129Z,25.20
2018-08-23T21:51:28.423Z,25.10
2018-08-23T21:53:57.701Z,25.10
2018-08-23T21:56:27.256Z,25.10
2018-08-23T21:58:57.190Z,25.00
2018-08-23T22:01:26.589Z,25.00
2018-08-23T22:03:55.924Z,24.90
2018-08-23T22:06:25.293Z,24.80
2018-08-23T22:08:54.551Z,24.70
2018-08-23T22:11:24.188Z,24.70
2018-08-23T22:13:53.460Z,24.70
2018-08-23T22:16:23.620Z,24.60
2018-08-23T22:18:52.922Z,24.70
2018-08-23T22:21:22.156Z,24.70
2018-08-23T22:23:51.433Z,24.70
2018-08-23T22:26:20.726Z,24.50
2018-08-23T22:28:50.013Z,24.50
2018-08-23T22:31:19.276Z,24.40
2018-08-23T22:33:48.823Z,24.40
2018-08-23T22:36:18.076Z,24.40
2018-08-23T22:38:47.351Z,24.30
2018-08-23T22:41:16.797Z,24.30
2018-08-23T22:43:46.051Z,24.30
2018-08-23T22:46:15.448Z,24.40
2018-08-23T22:48:44.860Z,24.40
2018-08-23T22:51:14.104Z,24.50
2018-08-23T22:53:43.660Z,24.60
2018-08-23T22:56:13.228Z,24.50
2018-08-23T22:58:42.492Z,24.40
2018-08-23T23:01:11.754Z,24.30
2018-08-23T23:03:46.260Z,24.40
2018-08-23T23:06:15.824Z,24.40
2018-08-23T23:08:45.268Z,24.40
2018-08-23T23:11:15.080Z,24.40
2018-08-23T23:13:44.437Z,24.40
2018-08-23T23:16:13.873Z,24.40
2018-08-23T23:18:43.070Z,24.20
2018-08-23T23:21:12.325Z,24.00
2018-08-23T23:23:41.769Z,23.90
2018-08-23T23:26:11.116Z,23.90
2018-08-23T23:28:40.373Z,23.90
2018-08-23T23:31:09.615Z,23.80
2018-08-23T23:33:39.129Z,23.70
2018-08-23T23:36:08.385Z,23.80
2018-08-23T23:38:37.675Z,23.70
2018-08-23T23:41:06.952Z,23.80
2018-08-23T23:43:36.184Z,23.90
2018-08-23T23:46:05.848Z,23.90
2018-08-23T23:48:35.472Z,23.90
2018-08-23T23:51:05.276Z,23.80
2018-08-23T23:53:34.639Z,23.70
2018-08-23T23:56:04.220Z,23.60
2018-08-23T23:58:33.424Z,23.60
